createdAt,value
2023-02-22T00:00:06.325Z,5.06
2023-02-22T00:03:35.020Z,4.96
2023-02-22T00:06:56.238Z,4.86
2023-02-22T00:10:27.060Z,4.74
2023-02-22T00:13:34.229Z,4.62
2023-02-22T00:17:02.647Z,4.50
2023-02-22T00:20:19.400Z,4.38
2023-02-22T00:23:47.528Z,4.27
2023-02-22T00:27:06.043Z,4.16
2023-02-22T00:30:24.399Z,4.08
2023-02-22T00:33:33.686Z,3.97
2023-02-22T00:36:48.434Z,3.88
2023-02-22T00:39:54.747Z,3.80
2023-02-22T00:43:06.376Z,3.74
2023-02-22T00:46:30.518Z,3.67
2023-02-22T00:49:42.671Z,3.63
2023-02-22T00:52:58.328Z,3.60
2023-02-22T00:56:03.927Z,3.57
2023-02-22T00:59:27.427Z,3.51
2023-02-22T01:02:51.965Z,3.43
2023-02-22T01:06:00.482Z,3.34
2023-02-22T01:09:23.497Z,3.25
2023-02-22T01:12:30.465Z,3.19
2023-02-22T01:15:45.777Z,3.17
2023-02-22T01:19:12.712Z,3.20
2023-02-22T01:22:35.214Z,3.23
2023-02-22T01:25:44.614Z,3.28
2023-02-22T01:29:04.392Z,3.35
2023-02-22T01:32:26.992Z,3.42
2023-02-22T01:35:50.199Z,3.49
2023-02-22T01:39:10.355Z,3.55
2023-02-22T01:42:33.426Z,3.61
2023-02-22T01:45:52.322Z,3.68
2023-02-22T01:49:21.489Z,3.81
2023-02-22T01:52:28.786Z,3.93
2023-02-22T01:55:35.927Z,4.02
2023-02-22T01:58:52.262Z,4.06
2023-02-22T02:01:56.916Z,4.05
2023-02-22T02:05:08.464Z,4.04
2023-02-22T02:08:52.622Z,4.04
2023-02-22T02:11:56.162Z,4.04
2023-02-22T02:15:25.972Z,4.03
2023-02-22T02:18:30.079Z,4.04
2023-02-22T02:21:42.190Z,4.03
2023-02-22T02:25:06.822Z,4.03
2023-02-22T02:28:34.638Z,3.99
2023-02-22T02:32:06.176Z,3.92
2023-02-22T02:35:24.728Z,3.89
2023-02-22T02:39:07.248Z,3.85
2023-02-22T02:42:15.690Z,3.86
2023-02-22T02:45:26.469Z,3.90
2023-02-22T02:48:32.784Z,3.94
2023-02-22T02:51:40.202Z,3.97
2023-02-22T02:54:45.867Z,3.97
2023-02-22T02:57:48.804Z,3.96
2023-02-22T03:00:55.785Z,3.94
2023-02-22T03:04:20.397Z,3.90
2023-02-22T03:07:26.133Z,3.88
2023-02-22T03:10:44.485Z,3.88
2023-02-22T03:13:47.372Z,3.90
2023-02-22T03:16:58.547Z,3.90
2023-02-22T03:20:31.911Z,3.90
2023-02-22T03:23:48.227Z,3.90
2023-02-22T03:27:04.662Z,3.89
2023-02-22T03:30:12.443Z,3.88
2023-02-22T03:33:21.031Z,3.88
2023-02-22T03:36:35.828Z,3.84
2023-02-22T03:39:39.056Z,3.81
2023-02-22T03:42:48.939Z,3.78
2023-02-22T03:45:53.329Z,3.73
2023-02-22T03:49:03.811Z,3.68
2023-02-22T03:52:08.111Z,3.63
2023-02-22T03:55:12.658Z,3.57
2023-02-22T03:58:16.528Z,3.53
2023-02-22T04:01:20.181Z,3.48
2023-02-22T04:04:25.359Z,3.44
2023-02-22T04:07:28.352Z,3.42
2023-02-22T04:10:31.878Z,3.40
2023-02-22T04:13:34.901Z,3.40
2023-02-22T04:16:37.885Z,3.39
2023-02-22T04:19:41.040Z,3.40
2023-02-22T04:22:43.977Z,3.43
2023-02-22T04:25:46.988Z,3.47
2023-02-22T04:28:49.911Z,3.49
2023-02-22T04:31:53.160Z,3.50
2023-02-22T04:34:56.238Z,3.50
2023-02-22T04:37:59.301Z,3.50
2023-02-22T04:41:02.504Z,3.52
2023-02-22T04:44:05.674Z,3.53
2023-02-22T04:47:08.693Z,3.55
2023-02-22T04:50:12.763Z,3.58
2023-02-22T04:53:15.934Z,3.61
2023-02-22T04:56:58.442Z,3.66
2023-02-22T05:00:40.516Z,3.70
2023-02-22T05:04:08.687Z,3.73
2023-02-22T05:07:35.796Z,3.73
2023-02-22T05:10:43.370Z,3.73
2023-02-22T05:14:04.466Z,3.74
2023-02-22T05:17:07.549Z,3.74
2023-02-22T05:20:19.780Z,3.76
2023-02-22T05:23:22.912Z,3.76
2023-02-22T05:26:26.113Z,3.76
2023-02-22T05:29:29.205Z,3.77
2023-02-22T05:32:32.282Z,3.75
2023-02-22T05:35:37.237Z,3.75
2023-02-22T05:38:44.876Z,3.74
2023-02-22T05:41:48.186Z,3.73
2023-02-22T05:44:51.273Z,3.74
2023-02-22T05:47:58.199Z,3.73
2023-02-22T05:51:01.188Z,3.74
2023-02-22T05:54:04.480Z,3.76
2023-02-22T05:57:10.608Z,3.78
2023-02-22T06:00:23.285Z,3.80
2023-02-22T06:03:26.536Z,3.82
2023-02-22T06:06:29.693Z,3.84
2023-02-22T06:09:32.810Z,3.87
2023-02-22T06:12:35.945Z,3.89
2023-02-22T06:15:53.848Z,3.95
2023-02-22T06:18:56.875Z,3.98
2023-02-22T06:22:03.356Z,4.02
2023-02-22T06:25:07.123Z,4.04
2023-02-22T06:28:11.041Z,4.07
2023-02-22T06:31:14.255Z,4.09
2023-02-22T06:34:17.975Z,4.14
2023-02-22T06:37:21.127Z,4.21
2023-02-22T06:40:24.313Z,4.34
2023-02-22T06:43:27.325Z,4.48
2023-02-22T06:46:30.396Z,4.59
2023-02-22T06:49:33.436Z,4.69
2023-02-22T06:52:36.485Z,4.78
2023-02-22T06:55:39.488Z,4.88
2023-02-22T06:58:42.510Z,4.98
2023-02-22T07:01:45.502Z,5.10
2023-02-22T07:04:48.588Z,5.23
2023-02-22T07:07:53.598Z,5.36
2023-02-22T07:10:56.891Z,5.49
2023-02-22T07:13:59.913Z,5.59
2023-02-22T07:17:03.451Z,5.65
2023-02-22T07:20:06.943Z,5.74
2023-02-22T07:23:10.007Z,5.83
2023-02-22T07:26:14.313Z,5.90
2023-02-22T07:29:17.465Z,5.98
2023-02-22T07:32:20.546Z,6.08
2023-02-22T07:35:31.918Z,6.19
2023-02-22T07:38:35.131Z,6.32
2023-02-22T07:41:40.560Z,6.36
2023-02-22T07:44:49.607Z,6.33
2023-02-22T07:47:53.263Z,6.32
2023-02-22T07:50:57.320Z,6.49
2023-02-22T07:54:00.393Z,6.58
2023-02-22T07:57:03.780Z,6.65
2023-02-22T08:00:07.418Z,6.63
2023-02-22T08:03:15.292Z,6.69
2023-02-22T08:06:18.433Z,6.77
2023-02-22T08:09:21.463Z,6.86
2023-02-22T08:12:24.514Z,7.07
2023-02-22T08:15:28.998Z,7.27
2023-02-22T08:18:32.148Z,7.38
2023-02-22T08:21:35.108Z,7.51
2023-02-22T08:24:38.253Z,7.66
2023-02-22T08:27:42.010Z,7.72
2023-02-22T08:30:45.002Z,7.80
2023-02-22T08:33:49.587Z,7.91
2023-02-22T08:36:52.990Z,8.03
2023-02-22T08:39:56.303Z,8.13
2023-02-22T08:42:59.827Z,8.21
2023-02-22T08:46:02.865Z,8.29
2023-02-22T08:49:10.713Z,8.45
2023-02-22T08:52:13.711Z,8.64
2023-02-22T08:55:19.897Z,8.79
2023-02-22T08:58:40.408Z,8.98
2023-02-22T09:02:10.945Z,9.06
2023-02-22T09:05:26.309Z,9.17
2023-02-22T09:08:29.449Z,9.27
2023-02-22T09:11:32.436Z,9.33
2023-02-22T09:14:35.493Z,9.35
2023-02-22T09:17:38.625Z,9.40
2023-02-22T09:20:42.123Z,9.55
2023-02-22T09:23:50.132Z,9.59
2023-02-22T09:27:10.624Z,9.70
2023-02-22T09:30:34.884Z,9.75
2023-02-22T09:33:39.048Z,9.75
2023-02-22T09:36:46.752Z,9.83
2023-02-22T09:39:51.426Z,9.86
2023-02-22T09:43:23.185Z,9.63
2023-02-22T09:46:29.948Z,9.59
2023-02-22T09:49:51.885Z,9.75
2023-02-22T09:53:53.397Z,9.61
2023-02-22T09:57:02.604Z,9.54
2023-02-22T10:00:22.214Z,9.43
2023-02-22T10:03:30.005Z,9.36
2023-02-22T10:06:34.859Z,9.40
2023-02-22T10:09:45.021Z,9.37
2023-02-22T10:12:56.980Z,9.26
2023-02-22T10:16:03.111Z,9.13
2023-02-22T10:19:12.235Z,9.23
2023-02-22T10:22:52.794Z,9.31
2023-02-22T10:26:04.722Z,9.61
2023-02-22T10:29:07.475Z,9.72
2023-02-22T10:32:45.644Z,9.87
2023-02-22T10:35:49.110Z,10.13
2023-02-22T10:38:58.608Z,10.35
2023-02-22T10:42:09.939Z,10.31
2023-02-22T10:45:50.399Z,10.02
2023-02-22T10:49:03.779Z,9.81
2023-02-22T10:52:17.375Z,9.90
2023-02-22T10:55:20.471Z,10.11
2023-02-22T10:58:24.714Z,10.03
2023-02-22T11:01:37.742Z,9.89
2023-02-22T11:04:55.884Z,9.80
2023-02-22T11:08:15.983Z,9.69
2023-02-22T11:11:24.883Z,9.69
2023-02-22T11:14:30.040Z,9.63
2023-02-22T11:17:34.636Z,9.72
2023-02-22T11:20:39.888Z,9.81
2023-02-22T11:23:45.089Z,9.97
2023-02-22T11:26:59.790Z,10.11
2023-02-22T11:30:18.627Z,10.27
2023-02-22T11:33:25.906Z,10.34
2023-02-22T11:36:40.596Z,10.22
2023-02-22T11:39:45.570Z,10.32
2023-02-22T11:43:16.198Z,10.35
2023-02-22T11:46:23.366Z,10.42
2023-02-22T11:49:34.486Z,10.36
2023-02-22T11:52:46.299Z,10.29
2023-02-22T11:56:06.163Z,10.23
2023-02-22T11:59:12.256Z,10.35
2023-02-22T12:02:51.909Z,10.34
2023-02-22T12:06:08.359Z,10.47
2023-02-22T12:09:33.254Z,10.44
2023-02-22T12:12:47.419Z,10.37
2023-02-22T12:16:16.684Z,10.38
2023-02-22T12:19:41.927Z,10.42
2023-02-22T12:22:55.558Z,10.33
2023-02-22T12:26:15.025Z,10.25
2023-02-22T12:29:39.661Z,10.36
2023-02-22T12:32:48.380Z,10.45
2023-02-22T12:35:58.600Z,10.53
2023-02-22T12:39:11.081Z,10.56
2023-02-22T12:42:42.827Z,10.65
2023-02-22T12:46:00.579Z,10.66
2023-02-22T12:49:24.950Z,10.58
2023-02-22T12:52:57.960Z,10.51
2023-02-22T12:56:19.419Z,10.44
2023-02-22T12:59:32.026Z,10.36
2023-02-22T13:03:17.915Z,10.26
2023-02-22T13:06:48.713Z,10.29
2023-02-22T13:09:59.667Z,10.20
2023-02-22T13:13:17.323Z,9.94
2023-02-22T13:16:32.861Z,9.76
2023-02-22T13:19:42.046Z,9.53
2023-02-22T13:23:04.493Z,9.45
2023-02-22T13:26:19.796Z,9.38
2023-02-22T13:29:29.988Z,9.39
2023-02-22T13:32:58.924Z,9.50
2023-02-22T13:36:01.874Z,9.60
2023-02-22T13:39:21.960Z,9.54
2023-02-22T13:42:50.481Z,9.48
2023-02-22T13:46:39.150Z,9.57
2023-02-22T13:49:59.973Z,9.62
2023-02-22T13:53:10.583Z,9.57
2023-02-22T13:56:14.899Z,9.53
2023-02-22T13:59:37.491Z,9.51
2023-02-22T14:03:08.301Z,9.44
2023-02-22T14:06:39.039Z,9.48
2023-02-22T14:10:30.846Z,9.43
2023-02-22T14:14:38.084Z,9.15
2023-02-22T14:18:03.397Z,9.11
2023-02-22T14:21:11.439Z,9.10
2023-02-22T14:24:16.757Z,9.08
2023-02-22T14:27:20.191Z,9.12
2023-02-22T14:31:29.437Z,9.10
2023-02-22T14:34:58.372Z,8.88
2023-02-22T14:38:02.462Z,8.82
2023-02-22T14:41:09.145Z,8.79
2023-02-22T14:44:13.824Z,8.74
2023-02-22T14:47:22.838Z,8.76
2023-02-22T14:50:30.309Z,8.74
2023-02-22T14:53:51.776Z,8.70
2023-02-22T14:57:15.362Z,8.65
2023-02-22T15:00:31.219Z,8.62
2023-02-22T15:03:38.320Z,8.59
2023-02-22T15:06:41.299Z,8.53
2023-02-22T15:09:48.450Z,8.45
2023-02-22T15:13:09.124Z,8.40
2023-02-22T15:16:14.555Z,8.36
2023-02-22T15:20:25.990Z,8.25
2023-02-22T15:24:04.158Z,8.14
2023-02-22T15:27:15.287Z,8.11
2023-02-22T15:30:26.857Z,8.05
2023-02-22T15:33:34.346Z,8.01
2023-02-22T15:36:37.500Z,7.96
2023-02-22T15:39:44.124Z,7.85
2023-02-22T15:43:09.069Z,7.75
2023-02-22T15:46:18.966Z,7.64
2023-02-22T15:49:40.384Z,7.55
2023-02-22T15:53:07.854Z,7.45
2023-02-22T15:56:15.550Z,7.35
2023-02-22T15:59:20.802Z,7.26
2023-02-22T16:02:40.183Z,7.15
2023-02-22T16:05:50.169Z,7.04
2023-02-22T16:08:55.886Z,6.92
2023-02-22T16:12:11.369Z,6.80
2023-02-22T16:15:17.341Z,6.68
2023-02-22T16:18:33.783Z,6.57
2023-02-22T16:21:53.613Z,6.47
2023-02-22T16:25:18.555Z,6.35
2023-02-22T16:28:35.764Z,6.23
2023-02-22T16:31:40.289Z,6.11
2023-02-22T16:34:43.560Z,6.00
2023-02-22T16:37:52.649Z,5.92
2023-02-22T16:40:58.533Z,5.83
2023-02-22T16:44:01.997Z,5.76
2023-02-22T16:47:04.996Z,5.67
2023-02-22T16:50:08.454Z,5.57
2023-02-22T16:53:12.101Z,5.46
2023-02-22T16:56:18.107Z,5.39
2023-02-22T16:59:21.511Z,5.31
2023-02-22T17:02:24.667Z,5.22
2023-02-22T17:05:28.037Z,5.12
2023-02-22T17:08:32.536Z,5.01
2023-02-22T17:11:36.986Z,4.89
2023-02-22T17:14:41.188Z,4.78
2023-02-22T17:17:44.122Z,4.68
2023-02-22T17:20:47.060Z,4.54
2023-02-22T17:24:47.544Z,4.41
2023-02-22T17:28:08.064Z,4.25
2023-02-22T17:31:31.513Z,4.10
2023-02-22T17:34:41.045Z,3.96
2023-02-22T17:37:53.848Z,3.84
2023-02-22T17:41:16.800Z,3.70
2023-02-22T17:44:43.681Z,3.56
2023-02-22T17:47:55.394Z,3.43
2023-02-22T17:51:19.920Z,3.33
2023-02-22T17:54:31.450Z,3.22
2023-02-22T17:57:50.614Z,3.12
2023-02-22T18:00:59.756Z,3.02
2023-02-22T18:04:35.155Z,2.93
2023-02-22T18:07:48.739Z,2.85
2023-02-22T18:10:59.051Z,2.82
2023-02-22T18:14:10.172Z,2.89
2023-02-22T18:17:13.236Z,2.95
2023-02-22T18:20:20.343Z,3.05
2023-02-22T18:23:27.170Z,3.12
2023-02-22T18:26:30.412Z,3.20
2023-02-22T18:29:34.054Z,3.26
2023-02-22T18:32:37.030Z,3.33
2023-02-22T18:35:42.994Z,3.39
2023-02-22T18:38:45.946Z,3.45
2023-02-22T18:41:48.958Z,3.49
2023-02-22T18:44:53.084Z,3.53
2023-02-22T18:47:56.178Z,3.55
2023-02-22T18:51:05.853Z,3.54
2023-02-22T18:54:08.927Z,3.52
2023-02-22T18:57:13.094Z,3.48
2023-02-22T19:00:18.889Z,3.45
2023-02-22T19:03:21.907Z,3.41
2023-02-22T19:06:24.984Z,3.38
2023-02-22T19:09:27.993Z,3.35
2023-02-22T19:12:31.707Z,3.34
2023-02-22T19:15:34.743Z,3.33
2023-02-22T19:18:38.010Z,3.34
2023-02-22T19:21:41.307Z,3.35
2023-02-22T19:24:45.369Z,3.35
2023-02-22T19:27:48.203Z,3.37
2023-02-22T19:30:51.354Z,3.38
2023-02-22T19:33:54.353Z,3.40
2023-02-22T19:37:00.801Z,3.40
2023-02-22T19:40:07.064Z,3.41
2023-02-22T19:43:10.551Z,3.41
2023-02-22T19:46:13.787Z,3.41
2023-02-22T19:49:16.821Z,3.40
2023-02-22T19:52:19.848Z,3.37
2023-02-22T19:55:22.849Z,3.34
2023-02-22T19:58:25.908Z,3.30
2023-02-22T20:01:33.531Z,3.23
2023-02-22T20:04:37.421Z,3.17
2023-02-22T20:07:40.531Z,3.11
2023-02-22T20:10:43.466Z,3.04
2023-02-22T20:13:46.854Z,3.00
2023-02-22T20:17:11.905Z,2.95
2023-02-22T20:20:30.676Z,2.91
2023-02-22T20:23:34.136Z,2.88
2023-02-22T20:26:39.028Z,2.84
2023-02-22T20:29:42.359Z,2.81
2023-02-22T20:32:45.385Z,2.79
2023-02-22T20:35:48.770Z,2.76
2023-02-22T20:38:54.307Z,2.72
2023-02-22T20:42:00.701Z,2.66
2023-02-22T20:45:06.170Z,2.60
2023-02-22T20:48:09.214Z,2.55
2023-02-22T20:51:14.687Z,2.51
2023-02-22T20:54:18.088Z,2.48
2023-02-22T20:57:20.912Z,2.44
2023-02-22T21:00:23.879Z,2.41
2023-02-22T21:03:26.747Z,2.37
2023-02-22T21:06:30.986Z,2.35
2023-02-22T21:09:34.011Z,2.30
2023-02-22T21:12:36.840Z,2.26
2023-02-22T21:15:43.568Z,2.21
2023-02-22T21:18:46.552Z,2.18
2023-02-22T21:21:49.466Z,2.14
2023-02-22T21:24:53.428Z,2.09
2023-02-22T21:27:56.308Z,2.01
2023-02-22T21:31:05.893Z,1.93
2023-02-22T21:34:12.295Z,1.84
2023-02-22T21:37:18.153Z,1.74
2023-02-22T21:40:21.047Z,1.62
2023-02-22T21:43:25.325Z,1.50
2023-02-22T21:46:29.549Z,1.37
2023-02-22T21:49:32.474Z,1.25
2023-02-22T21:52:35.403Z,1.16
2023-02-22T21:55:38.454Z,1.07
2023-02-22T21:58:44.841Z,1.01
2023-02-22T22:01:55.951Z,0.95
2023-02-22T22:04:59.246Z,0.88
2023-02-22T22:08:02.126Z,0.80
2023-02-22T22:11:05.899Z,0.73
2023-02-22T22:14:10.727Z,0.68
2023-02-22T22:17:13.729Z,0.64
2023-02-22T22:20:17.140Z,0.62
2023-02-22T22:23:20.027Z,0.60
2023-02-22T22:26:24.872Z,0.57
2023-02-22T22:29:28.750Z,0.53
2023-02-22T22:32:32.371Z,0.48
2023-02-22T22:35:38.685Z,0.44
2023-02-22T22:38:43.138Z,0.40
2023-02-22T22:41:46.099Z,0.34
2023-02-22T22:44:50.497Z,0.31
2023-02-22T22:47:53.495Z,0.27
2023-02-22T22:51:06.604Z,0.23
2023-02-22T22:54:10.512Z,0.19
2023-02-22T22:57:13.708Z,0.16
2023-02-22T23:00:26.943Z,0.12
2023-02-22T23:03:30.256Z,0.06
2023-02-22T23:06:36.559Z,0.01
2023-02-22T23:09:41.652Z,-0.01
2023-02-22T23:12:44.930Z,-0.05
2023-02-22T23:15:47.891Z,-0.09
2023-02-22T23:18:51.541Z,-0.11
2023-02-22T23:21:56.064Z,-0.13
2023-02-22T23:25:00.035Z,-0.15
2023-02-22T23:28:03.149Z,-0.17
2023-02-22T23:31:08.579Z,-0.18
2023-02-22T23:34:11.513Z,-0.18
2023-02-22T23:37:14.482Z,-0.20
2023-02-22T23:40:18.398Z,-0.23
2023-02-22T23:43:25.566Z,-0.25
2023-02-22T23:46:32.909Z,-0.27
2023-02-22T23:49:37.171Z,-0.28
2023-02-22T23:52:40.078Z,-0.27
2023-02-22T23:55:44.322Z,-0.26
2023-02-22T23:58:50.483Z,-0.26
